sensor_id;sensor_type;location;lat;lon;timestamp;pressure;altitude;pressure_sealevel;temperature;humidity
6567;BME280;3317;43.994;22.878;2023-03-03T00:00:38;101491.34;;;5.52;77.34
6567;BME280;3317;43.994;22.878;2023-03-03T00:03:07;101493.94;;;5.53;77.33
6567;BME280;3317;43.994;22.878;2023-03-03T00:05:36;101498.34;;;5.54;77.10
6567;BME280;3317;43.994;22.878;2023-03-03T00:08:04;101491.25;;;5.53;77.00
6567;BME280;3317;43.994;22.878;2023-03-03T00:10:31;101487.59;;;5.54;77.42
6567;BME280;3317;43.994;22.878;2023-03-03T00:12:58;101482.22;;;5.54;77.40
6567;BME280;3317;43.994;22.878;2023-03-03T00:15:26;101482.31;;;5.53;77.57
6567;BME280;3317;43.994;22.878;2023-03-03T00:17:53;101485.66;;;5.56;77.40
6567;BME280;3317;43.994;22.878;2023-03-03T00:20:33;101482.09;;;5.56;77.53
6567;BME280;3317;43.994;22.878;2023-03-03T00:23:12;101482.09;;;5.56;77.75
6567;BME280;3317;43.994;22.878;2023-03-03T00:25:44;101479.75;;;5.51;77.95
6567;BME280;3317;43.994;22.878;2023-03-03T00:28:31;101477.91;;;5.52;77.85
6567;BME280;3317;43.994;22.878;2023-03-03T00:31:14;101472.53;;;5.52;77.87
6567;BME280;3317;43.994;22.878;2023-03-03T00:33:46;101479.75;;;5.51;77.88
6567;BME280;3317;43.994;22.878;2023-03-03T00:36:29;101457.88;;;5.43;77.50
6567;BME280;3317;43.994;22.878;2023-03-03T00:39:12;101475.97;;;5.54;77.17
6567;BME280;3317;43.994;22.878;2023-03-03T00:41:43;101463.47;;;5.53;76.91
6567;BME280;3317;43.994;22.878;2023-03-03T00:44:36;101464.38;;;5.53;77.46
6567;BME280;3317;43.994;22.878;2023-03-03T00:47:24;101461.75;;;5.52;77.21
6567;BME280;3317;43.994;22.878;2023-03-03T00:49:52;101454.44;;;5.54;77.36
6567;BME280;3317;43.994;22.878;2023-03-03T00:52:23;101453.59;;;5.53;77.28
6567;BME280;3317;43.994;22.878;2023-03-03T00:54:53;101453.59;;;5.53;77.35
6567;BME280;3317;43.994;22.878;2023-03-03T00:57:20;101452.72;;;5.53;77.55
6567;BME280;3317;43.994;22.878;2023-03-03T00:59:47;101443.81;;;5.52;77.54
6567;BME280;3317;43.994;22.878;2023-03-03T01:02:14;101440.16;;;5.53;77.28
6567;BME280;3317;43.994;22.878;2023-03-03T01:04:42;101436.72;;;5.51;77.50
6567;BME280;3317;43.994;22.878;2023-03-03T01:07:10;101441.00;;;5.54;77.17
6567;BME280;3317;43.994;22.878;2023-03-03T01:09:38;101421.06;;;5.43;77.51
6567;BME280;3317;43.994;22.878;2023-03-03T01:12:05;101436.59;;;5.53;77.48
6567;BME280;3317;43.994;22.878;2023-03-03T01:14:33;101428.44;;;5.54;77.52
6567;BME280;3317;43.994;22.878;2023-03-03T01:16:59;101424.78;;;5.55;77.62
6567;BME280;3317;43.994;22.878;2023-03-03T01:19:26;101424.88;;;5.54;77.67
6567;BME280;3317;43.994;22.878;2023-03-03T01:21:53;101424.78;;;5.55;78.06
6567;BME280;3317;43.994;22.878;2023-03-03T01:24:20;101429.28;;;5.55;77.93
6567;BME280;3317;43.994;22.878;2023-03-03T01:26:48;101424.78;;;5.55;78.68
6567;BME280;3317;43.994;22.878;2023-03-03T01:29:15;101422.00;;;5.57;78.72
6567;BME280;3317;43.994;22.878;2023-03-03T01:31:42;101405.88;;;5.57;79.11
6567;BME280;3317;43.994;22.878;2023-03-03T01:34:09;101413.81;;;5.58;79.03
6567;BME280;3317;43.994;22.878;2023-03-03T01:36:36;101415.53;;;5.59;79.00
6567;BME280;3317;43.994;22.878;2023-03-03T01:39:03;101405.66;;;5.60;79.26
6567;BME280;3317;43.994;22.878;2023-03-03T01:41:31;101396.41;;;5.51;78.73
6567;BME280;3317;43.994;22.878;2023-03-03T01:43:59;101394.25;;;5.56;78.60
6567;BME280;3317;43.994;22.878;2023-03-03T01:46:43;101406.41;;;5.62;78.48
6567;BME280;3317;43.994;22.878;2023-03-03T01:49:15;101401.13;;;5.60;78.57
6567;BME280;3317;43.994;22.878;2023-03-03T01:51:48;101395.66;;;5.62;78.54
6567;BME280;3317;43.994;22.878;2023-03-03T01:54:20;101392.97;;;5.62;78.60
6567;BME280;3317;43.994;22.878;2023-03-03T01:56:49;101395.66;;;5.62;78.77
6567;BME280;3317;43.994;22.878;2023-03-03T01:59:22;101393.81;;;5.62;78.57
6567;BME280;3317;43.994;22.878;2023-03-03T02:01:51;101392.88;;;5.63;78.07
6567;BME280;3317;43.994;22.878;2023-03-03T02:04:19;101392.88;;;5.63;78.65
6567;BME280;3317;43.994;22.878;2023-03-03T02:06:51;101396.41;;;5.64;78.78
6567;BME280;3317;43.994;22.878;2023-03-03T02:09:26;101390.06;;;5.65;78.36
6567;BME280;3317;43.994;22.878;2023-03-03T02:11:58;101388.25;;;5.66;78.12
6567;BME280;3317;43.994;22.878;2023-03-03T02:14:28;101386.53;;;5.64;78.22
6567;BME280;3317;43.994;22.878;2023-03-03T02:16:55;101389.22;;;5.64;78.32
6567;BME280;3317;43.994;22.878;2023-03-03T02:19:27;101387.28;;;5.67;78.22
6567;BME280;3317;43.994;22.878;2023-03-03T02:21:58;101384.66;;;5.65;78.40
6567;BME280;3317;43.994;22.878;2023-03-03T02:24:31;101377.78;;;5.61;78.01
6567;BME280;3317;43.994;22.878;2023-03-03T02:27:01;101314.91;;;5.23;78.05
6567;BME280;3317;43.994;22.878;2023-03-03T02:29:28;101380.16;;;5.66;78.05
6567;BME280;3317;43.994;22.878;2023-03-03T02:31:55;101314.22;;;5.34;77.58
6567;BME280;3317;43.994;22.878;2023-03-03T02:34:22;101374.78;;;5.66;77.39
6567;BME280;3317;43.994;22.878;2023-03-03T02:36:49;101374.78;;;5.66;77.62
6567;BME280;3317;43.994;22.878;2023-03-03T02:39:18;101367.69;;;5.64;77.89
6567;BME280;3317;43.994;22.878;2023-03-03T02:41:49;101365.84;;;5.65;78.50
6567;BME280;3317;43.994;22.878;2023-03-03T02:44:20;101365.84;;;5.65;78.79
6567;BME280;3317;43.994;22.878;2023-03-03T02:46:49;101357.34;;;5.58;78.37
6567;BME280;3317;43.994;22.878;2023-03-03T02:49:18;101368.53;;;5.65;78.56
6567;BME280;3317;43.994;22.878;2023-03-03T02:51:46;101368.53;;;5.65;78.67
6567;BME280;3317;43.994;22.878;2023-03-03T02:54:14;101367.56;;;5.66;79.17
6567;BME280;3317;43.994;22.878;2023-03-03T02:56:41;101361.34;;;5.66;79.16
6567;BME280;3317;43.994;22.878;2023-03-03T02:59:10;101366.59;;;5.67;79.11
6567;BME280;3317;43.994;22.878;2023-03-03T03:01:38;101359.50;;;5.66;79.08
6567;BME280;3317;43.994;22.878;2023-03-03T03:04:07;101351.56;;;5.64;79.22
6567;BME280;3317;43.994;22.878;2023-03-03T03:06:35;101358.53;;;5.67;78.90
6567;BME280;3317;43.994;22.878;2023-03-03T03:09:03;101320.88;;;5.41;79.32
6567;BME280;3317;43.994;22.878;2023-03-03T03:11:30;101354.88;;;5.68;79.25
6567;BME280;3317;43.994;22.878;2023-03-03T03:13:57;101354.88;;;5.68;79.21
6567;BME280;3317;43.994;22.878;2023-03-03T03:16:24;101361.13;;;5.69;79.14
6567;BME280;3317;43.994;22.878;2023-03-03T03:18:52;101364.66;;;5.69;78.77
6567;BME280;3317;43.994;22.878;2023-03-03T03:21:19;101352.19;;;5.68;79.03
6567;BME280;3317;43.994;22.878;2023-03-03T03:23:46;101352.97;;;5.70;79.11
6567;BME280;3317;43.994;22.878;2023-03-03T03:26:13;101345.84;;;5.69;78.69
6567;BME280;3317;43.994;22.878;2023-03-03T03:28:40;101343.03;;;5.71;78.54
6567;BME280;3317;43.994;22.878;2023-03-03T03:31:08;101337.66;;;5.71;78.83
6567;BME280;3317;43.994;22.878;2023-03-03T03:33:35;101341.34;;;5.70;78.74
6567;BME280;3317;43.994;22.878;2023-03-03T03:36:04;101345.00;;;5.69;78.93
6567;BME280;3317;43.994;22.878;2023-03-03T03:38:32;101342.28;;;5.69;78.71
6567;BME280;3317;43.994;22.878;2023-03-03T03:41:01;101338.72;;;5.68;79.10
6567;BME280;3317;43.994;22.878;2023-03-03T03:43:28;101319.03;;;5.55;79.34
6567;BME280;3317;43.994;22.878;2023-03-03T03:45:56;101339.94;;;5.64;79.15
6567;BME280;3317;43.994;22.878;2023-03-03T03:48:23;101335.50;;;5.63;79.44
6567;BME280;3317;43.994;22.878;2023-03-03T03:50:50;101337.34;;;5.62;79.48
6567;BME280;3317;43.994;22.878;2023-03-03T03:53:18;101333.88;;;5.60;79.53
6567;BME280;3317;43.994;22.878;2023-03-03T03:55:45;101336.59;;;5.60;79.33
6567;BME280;3317;43.994;22.878;2023-03-03T03:58:12;101333.88;;;5.60;79.28
6567;BME280;3317;43.994;22.878;2023-03-03T04:00:40;101329.38;;;5.61;79.51
6567;BME280;3317;43.994;22.878;2023-03-03T04:03:07;101322.28;;;5.60;79.32
6567;BME280;3317;43.994;22.878;2023-03-03T04:05:35;101318.84;;;5.58;79.67
6567;BME280;3317;43.994;22.878;2023-03-03T04:08:02;101318.63;;;5.61;79.13
6567;BME280;3317;43.994;22.878;2023-03-03T04:10:31;101310.97;;;5.55;79.23
6567;BME280;3317;43.994;22.878;2023-03-03T04:12:58;101320.25;;;5.63;78.82
6567;BME280;3317;43.994;22.878;2023-03-03T04:15:24;101317.56;;;5.63;79.46
6567;BME280;3317;43.994;22.878;2023-03-03T04:17:51;101301.84;;;5.57;79.01
6567;BME280;3317;43.994;22.878;2023-03-03T04:20:18;101316.47;;;5.66;79.31
6567;BME280;3317;43.994;22.878;2023-03-03T04:22:45;101316.59;;;5.64;78.95
6567;BME280;3317;43.994;22.878;2023-03-03T04:25:14;101315.72;;;5.64;79.04
6567;BME280;3317;43.994;22.878;2023-03-03T04:27:43;101316.38;;;5.68;78.68
6567;BME280;3317;43.994;22.878;2023-03-03T04:30:12;101310.13;;;5.67;78.37
6567;BME280;3317;43.994;22.878;2023-03-03T04:35:24;101320.88;;;5.67;78.71
6567;BME280;3317;43.994;22.878;2023-03-03T04:37:51;101314.66;;;5.67;78.60
6567;BME280;3317;43.994;22.878;2023-03-03T04:40:18;101315.50;;;5.67;78.44
6567;BME280;3317;43.994;22.878;2023-03-03T04:42:47;101316.47;;;5.66;78.50
6567;BME280;3317;43.994;22.878;2023-03-03T04:45:14;101310.03;;;5.69;78.16
6567;BME280;3317;43.994;22.878;2023-03-03T04:47:41;101315.50;;;5.67;78.41
6567;BME280;3317;43.994;22.878;2023-03-03T04:50:10;101306.69;;;5.65;78.73
6567;BME280;3317;43.994;22.878;2023-03-03T04:52:37;101310.25;;;5.66;78.91
6567;BME280;3317;43.994;22.878;2023-03-03T04:55:05;101308.41;;;5.66;78.81
6567;BME280;3317;43.994;22.878;2023-03-03T04:57:32;101304.75;;;5.67;78.82
6567;BME280;3317;43.994;22.878;2023-03-03T05:00:00;101305.63;;;5.68;78.78
6567;BME280;3317;43.994;22.878;2023-03-03T05:02:27;101310.13;;;5.67;78.61
6567;BME280;3317;43.994;22.878;2023-03-03T05:04:54;101313.69;;;5.68;78.87
6567;BME280;3317;43.994;22.878;2023-03-03T05:07:21;101310.13;;;5.67;78.27
6567;BME280;3317;43.994;22.878;2023-03-03T05:09:49;101313.69;;;5.68;78.51
6567;BME280;3317;43.994;22.878;2023-03-03T05:12:16;101308.31;;;5.68;78.33
6567;BME280;3317;43.994;22.878;2023-03-03T05:14:42;101310.13;;;5.67;78.54
6567;BME280;3317;43.994;22.878;2023-03-03T05:17:11;101313.78;;;5.66;78.36
6567;BME280;3317;43.994;22.878;2023-03-03T05:19:38;101309.28;;;5.67;78.61
6567;BME280;3317;43.994;22.878;2023-03-03T05:22:05;101311.00;;;5.68;78.74
6567;BME280;3317;43.994;22.878;2023-03-03T05:24:31;101309.28;;;5.67;78.59
6567;BME280;3317;43.994;22.878;2023-03-03T05:26:58;101311.84;;;5.68;78.42
6567;BME280;3317;43.994;22.878;2023-03-03T05:29:25;101305.50;;;5.69;78.49
6567;BME280;3317;43.994;22.878;2023-03-03T05:31:53;101307.34;;;5.69;78.18
6567;BME280;3317;43.994;22.878;2023-03-03T05:34:21;101302.94;;;5.68;78.29
6567;BME280;3317;43.994;22.878;2023-03-03T05:36:48;101302.81;;;5.69;78.28
6567;BME280;3317;43.994;22.878;2023-03-03T05:39:15;101307.13;;;5.72;78.45
6567;BME280;3317;43.994;22.878;2023-03-03T05:41:42;101298.31;;;5.70;78.55
6567;BME280;3317;43.994;22.878;2023-03-03T05:44:09;101300.88;;;5.71;78.39
6567;BME280;3317;43.994;22.878;2023-03-03T05:46:36;101297.44;;;5.69;78.16
6567;BME280;3317;43.994;22.878;2023-03-03T05:49:03;101298.06;;;5.73;77.96
6567;BME280;3317;43.994;22.878;2023-03-03T05:51:31;101306.03;;;5.74;78.31
6567;BME280;3317;43.994;22.878;2023-03-03T05:53:58;101305.16;;;5.74;78.28
6567;BME280;3317;43.994;22.878;2023-03-03T05:56:25;101304.31;;;5.73;78.65
6567;BME280;3317;43.994;22.878;2023-03-03T05:58:51;101307.75;;;5.75;78.36
6567;BME280;3317;43.994;22.878;2023-03-03T06:01:18;101312.06;;;5.78;78.33
6567;BME280;3317;43.994;22.878;2023-03-03T06:03:46;101306.69;;;5.78;78.10
6567;BME280;3317;43.994;22.878;2023-03-03T06:06:13;101313.66;;;5.81;78.39
6567;BME280;3317;43.994;22.878;2023-03-03T06:08:42;101317.22;;;5.81;78.45
6567;BME280;3317;43.994;22.878;2023-03-03T06:11:10;101314.44;;;5.83;78.12
6567;BME280;3317;43.994;22.878;2023-03-03T06:13:37;101317.00;;;5.84;78.56
6567;BME280;3317;43.994;22.878;2023-03-03T06:16:05;101315.94;;;5.87;78.57
6567;BME280;3317;43.994;22.878;2023-03-03T06:18:32;101316.03;;;5.85;78.69
6567;BME280;3317;43.994;22.878;2023-03-03T06:20:59;101314.09;;;5.87;78.90
6567;BME280;3317;43.994;22.878;2023-03-03T06:23:26;101315.72;;;5.90;78.73
6567;BME280;3317;43.994;22.878;2023-03-03T06:25:54;101312.69;;;5.95;78.36
6567;BME280;3317;43.994;22.878;2023-03-03T06:28:21;101310.09;;;5.93;78.19
6567;BME280;3317;43.994;22.878;2023-03-03T06:30:52;101298.09;;;5.86;77.95
6567;BME280;3317;43.994;22.878;2023-03-03T06:33:19;101321.41;;;5.98;78.11
6567;BME280;3317;43.994;22.878;2023-03-03T06:35:48;101314.00;;;6.02;77.83
6567;BME280;3317;43.994;22.878;2023-03-03T06:38:15;101317.34;;;6.05;77.35
6567;BME280;3317;43.994;22.878;2023-03-03T06:40:43;101316.34;;;6.06;77.74
6567;BME280;3317;43.994;22.878;2023-03-03T06:43:12;101324.25;;;6.10;77.90
6567;BME280;3317;43.994;22.878;2023-03-03T06:45:39;101320.34;;;6.14;77.77
6567;BME280;3317;43.994;22.878;2023-03-03T06:48:06;101324.75;;;6.15;77.26
6567;BME280;3317;43.994;22.878;2023-03-03T06:50:33;101322.81;;;6.17;77.72
6567;BME280;3317;43.994;22.878;2023-03-03T06:53:05;101319.78;;;6.22;77.15
6567;BME280;3317;43.994;22.878;2023-03-03T06:55:33;101321.41;;;6.24;77.35
6567;BME280;3317;43.994;22.878;2023-03-03T06:58:00;101320.19;;;6.28;77.44
6567;BME280;3317;43.994;22.878;2023-03-03T07:00:29;101321.69;;;6.32;77.61
6567;BME280;3317;43.994;22.878;2023-03-03T07:02:58;101319.78;;;6.34;77.41
6567;BME280;3317;43.994;22.878;2023-03-03T07:05:27;101245.34;;;5.96;77.66
6567;BME280;3317;43.994;22.878;2023-03-03T07:07:55;101323.16;;;6.50;78.17
6567;BME280;3317;43.994;22.878;2023-03-03T07:10:24;101319.16;;;6.55;78.12
6567;BME280;3317;43.994;22.878;2023-03-03T07:12:51;101326.16;;;6.58;77.98
6567;BME280;3317;43.994;22.878;2023-03-03T07:15:21;101324.94;;;6.62;77.92
6567;BME280;3317;43.994;22.878;2023-03-03T07:17:53;101328.03;;;6.69;77.60
6567;BME280;3317;43.994;22.878;2023-03-03T07:20:24;101325.88;;;6.74;77.26
6567;BME280;3317;43.994;22.878;2023-03-03T07:22:54;101331.53;;;6.82;76.95
6567;BME280;3317;43.994;22.878;2023-03-03T07:25:28;101314.41;;;6.83;76.70
6567;BME280;3317;43.994;22.878;2023-03-03T07:27:59;101325.38;;;6.93;76.89
6567;BME280;3317;43.994;22.878;2023-03-03T07:30:28;101315.94;;;6.99;76.50
6567;BME280;3317;43.994;22.878;2023-03-03T07:32:57;101316.56;;;7.02;75.88
6567;BME280;3317;43.994;22.878;2023-03-03T07:35:35;101321.38;;;7.10;75.56
6567;BME280;3317;43.994;22.878;2023-03-03T07:38:20;101312.69;;;7.18;75.49
6567;BME280;3317;43.994;22.878;2023-03-03T07:40:50;101307.69;;;7.25;74.90
6567;BME280;3317;43.994;22.878;2023-03-03T07:43:34;101310.78;;;7.31;75.43
6567;BME280;3317;43.994;22.878;2023-03-03T07:46:30;101308.50;;;7.38;75.63
6567;BME280;3317;43.994;22.878;2023-03-03T07:49:13;101300.88;;;7.43;74.46
6567;BME280;3317;43.994;22.878;2023-03-03T07:51:42;101304.06;;;7.49;74.61
6567;BME280;3317;43.994;22.878;2023-03-03T07:54:27;101302.00;;;7.52;74.52
6567;BME280;3317;43.994;22.878;2023-03-03T07:56:56;101303.34;;;7.58;74.42
6567;BME280;3317;43.994;22.878;2023-03-03T07:59:24;101304.81;;;7.62;73.88
6567;BME280;3317;43.994;22.878;2023-03-03T08:01:52;101305.34;;;7.67;73.36
6567;BME280;3317;43.994;22.878;2023-03-03T08:04:23;101308.53;;;7.72;72.92
6567;BME280;3317;43.994;22.878;2023-03-03T08:06:53;101311.84;;;7.76;72.28
6567;BME280;3317;43.994;22.878;2023-03-03T08:09:36;101298.72;;;7.71;71.93
6567;BME280;3317;43.994;22.878;2023-03-03T08:12:36;101308.06;;;7.90;71.72
6567;BME280;3317;43.994;22.878;2023-03-03T08:15:15;101310.72;;;8.01;73.53
6567;BME280;3317;43.994;22.878;2023-03-03T08:17:43;101308.28;;;8.10;74.55
6567;BME280;3317;43.994;22.878;2023-03-03T08:20:46;101309.00;;;8.23;75.82
6567;BME280;3317;43.994;22.878;2023-03-03T08:23:15;101305.56;;;8.32;76.59
6567;BME280;3317;43.994;22.878;2023-03-03T08:25:42;101277.84;;;8.30;76.99
6567;BME280;3317;43.994;22.878;2023-03-03T08:28:10;101295.13;;;8.51;77.35
6567;BME280;3317;43.994;22.878;2023-03-03T08:30:37;101302.88;;;8.55;75.50
6567;BME280;3317;43.994;22.878;2023-03-03T08:33:04;101297.06;;;8.60;73.33
6567;BME280;3317;43.994;22.878;2023-03-03T08:35:31;101294.13;;;8.63;73.16
6567;BME280;3317;43.994;22.878;2023-03-03T08:38:00;101304.66;;;8.66;72.13
6567;BME280;3317;43.994;22.878;2023-03-03T08:40:27;101291.03;;;8.68;70.63
6567;BME280;3317;43.994;22.878;2023-03-03T08:42:54;101289.91;;;8.70;69.57
6567;BME280;3317;43.994;22.878;2023-03-03T08:45:22;101301.44;;;8.72;68.92
6567;BME280;3317;43.994;22.878;2023-03-03T08:47:49;101295.66;;;8.77;68.34
6567;BME280;3317;43.994;22.878;2023-03-03T08:50:16;101297.38;;;8.78;67.95
6567;BME280;3317;43.994;22.878;2023-03-03T08:52:43;101290.75;;;8.82;67.49
6567;BME280;3317;43.994;22.878;2023-03-03T08:55:12;101297.59;;;8.86;67.23
6567;BME280;3317;43.994;22.878;2023-03-03T08:57:39;101304.56;;;9.00;69.94
6567;BME280;3317;43.994;22.878;2023-03-03T09:00:08;101296.19;;;9.04;69.86
6567;BME280;3317;43.994;22.878;2023-03-03T09:02:35;101290.38;;;9.08;68.46
6567;BME280;3317;43.994;22.878;2023-03-03T09:05:02;101288.41;;;9.10;67.70
6567;BME280;3317;43.994;22.878;2023-03-03T09:07:30;101292.56;;;9.14;67.72
6567;BME280;3317;43.994;22.878;2023-03-03T09:09:57;101299.56;;;9.17;66.94
6567;BME280;3317;43.994;22.878;2023-03-03T09:12:29;101297.56;;;9.19;66.47
6567;BME280;3317;43.994;22.878;2023-03-03T09:14:57;101298.16;;;9.23;65.44
6567;BME280;3317;43.994;22.878;2023-03-03T09:17:29;101295.41;;;9.13;63.76
6567;BME280;3317;43.994;22.878;2023-03-03T09:19:59;101304.34;;;9.13;63.91
6567;BME280;3317;43.994;22.878;2023-03-03T09:22:28;101295.78;;;9.08;63.63
6567;BME280;3317;43.994;22.878;2023-03-03T09:25:02;101295.13;;;8.95;63.01
6567;BME280;3317;43.994;22.878;2023-03-03T09:27:41;101287.91;;;9.05;65.57
6567;BME280;3317;43.994;22.878;2023-03-03T09:30:26;101286.81;;;9.08;65.57
6567;BME280;3317;43.994;22.878;2023-03-03T09:32:56;101284.81;;;9.10;64.44
6567;BME280;3317;43.994;22.878;2023-03-03T09:35:34;101280.03;;;9.13;63.39
6567;BME280;3317;43.994;22.878;2023-03-03T09:38:11;101283.84;;;9.11;63.15
6567;BME280;3317;43.994;22.878;2023-03-03T09:40:49;101288.84;;;9.15;62.90
6567;BME280;3317;43.994;22.878;2023-03-03T09:43:25;101288.00;;;9.15;62.65
6567;BME280;3317;43.994;22.878;2023-03-03T09:46:04;101282.66;;;9.25;63.52
6567;BME280;3317;43.994;22.878;2023-03-03T09:48:56;101280.16;;;9.33;64.44
6567;BME280;3317;43.994;22.878;2023-03-03T09:51:43;101272.63;;;9.37;63.45
6567;BME280;3317;43.994;22.878;2023-03-03T09:54:24;101277.38;;;9.44;64.17
6567;BME280;3317;43.994;22.878;2023-03-03T09:57:03;101281.00;;;9.55;64.33
6567;BME280;3317;43.994;22.878;2023-03-03T09:59:43;101279.19;;;9.65;64.49
6567;BME280;3317;43.994;22.878;2023-03-03T10:02:34;101274.97;;;9.72;64.71
6567;BME280;3317;43.994;22.878;2023-03-03T10:05:12;101271.00;;;9.77;64.94
6567;BME280;3317;43.994;22.878;2023-03-03T10:07:50;101267.16;;;9.79;64.30
6567;BME280;3317;43.994;22.878;2023-03-03T10:10:34;101266.41;;;9.77;63.57
6567;BME280;3317;43.994;22.878;2023-03-03T10:13:14;101267.28;;;9.78;63.29
6567;BME280;3317;43.994;22.878;2023-03-03T10:15:53;101268.28;;;9.77;63.03
6567;BME280;3317;43.994;22.878;2023-03-03T10:18:29;101266.69;;;9.74;63.31
6567;BME280;3317;43.994;22.878;2023-03-03T10:21:09;101266.97;;;9.71;62.45
6567;BME280;3317;43.994;22.878;2023-03-03T10:23:52;101252.84;;;9.67;63.18
6567;BME280;3317;43.994;22.878;2023-03-03T10:29:30;101253.31;;;9.72;63.40
6567;BME280;3317;43.994;22.878;2023-03-03T10:32:17;101253.88;;;9.76;63.92
6567;BME280;3317;43.994;22.878;2023-03-03T10:35:04;101253.88;;;9.76;64.50
6567;BME280;3317;43.994;22.878;2023-03-03T10:37:50;101245.63;;;9.78;64.22
6567;BME280;3317;43.994;22.878;2023-03-03T10:40:24;101249.34;;;9.77;63.80
6567;BME280;3317;43.994;22.878;2023-03-03T10:46:18;101232.81;;;9.80;64.42
6567;BME280;3317;43.994;22.878;2023-03-03T10:49:05;101230.69;;;9.83;64.27
6567;BME280;3317;43.994;22.878;2023-03-03T10:51:44;101201.16;;;9.70;64.40
6567;BME280;3317;43.994;22.878;2023-03-03T10:54:25;101224.28;;;9.84;63.73
6567;BME280;3317;43.994;22.878;2023-03-03T10:57:00;101222.19;;;9.88;63.87
6567;BME280;3317;43.994;22.878;2023-03-03T10:59:47;101213.47;;;9.94;63.86
6567;BME280;3317;43.994;22.878;2023-03-03T11:02:21;101217.09;;;10.05;64.10
6567;BME280;3317;43.994;22.878;2023-03-03T11:05:05;101209.97;;;10.13;64.64
6567;BME280;3317;43.994;22.878;2023-03-03T11:07:40;101198.31;;;10.13;64.52
6567;BME280;3317;43.994;22.878;2023-03-03T11:10:20;101211.56;;;10.26;64.19
6567;BME280;3317;43.994;22.878;2023-03-03T11:12:57;101192.91;;;10.33;63.97
6567;BME280;3317;43.994;22.878;2023-03-03T11:15:40;101195.50;;;10.44;63.94
6567;BME280;3317;43.994;22.878;2023-03-03T11:18:16;101187.97;;;10.48;64.36
6567;BME280;3317;43.994;22.878;2023-03-03T11:20:54;101194.34;;;10.66;63.96
6567;BME280;3317;43.994;22.878;2023-03-03T11:23:38;101192.22;;;10.70;62.92
6567;BME280;3317;43.994;22.878;2023-03-03T11:26:12;101188.97;;;10.76;62.71
6567;BME280;3317;43.994;22.878;2023-03-03T11:28:58;101187.94;;;10.77;61.90
6567;BME280;3317;43.994;22.878;2023-03-03T11:31:32;101188.97;;;10.76;61.20
6567;BME280;3317;43.994;22.878;2023-03-03T11:34:12;101187.78;;;10.79;61.54
6567;BME280;3317;43.994;22.878;2023-03-03T11:36:47;101185.66;;;10.82;61.18
6567;BME280;3317;43.994;22.878;2023-03-03T11:39:17;101129.63;;;10.53;61.08
6567;BME280;3317;43.994;22.878;2023-03-03T11:41:56;101177.34;;;10.94;61.80
6567;BME280;3317;43.994;22.878;2023-03-03T11:44:28;101178.78;;;10.98;61.70
6567;BME280;3317;43.994;22.878;2023-03-03T11:47:00;101161.09;;;10.94;61.32
6567;BME280;3317;43.994;22.878;2023-03-03T11:49:36;101170.47;;;11.09;61.15
6567;BME280;3317;43.994;22.878;2023-03-03T11:52:20;101171.16;;;11.11;60.78
6567;BME280;3317;43.994;22.878;2023-03-03T11:54:51;101167.19;;;11.16;60.82
6567;BME280;3317;43.994;22.878;2023-03-03T11:57:24;101154.03;;;11.21;61.11
6567;BME280;3317;43.994;22.878;2023-03-03T12:00:02;101153.31;;;11.19;60.82
6567;BME280;3317;43.994;22.878;2023-03-03T12:03:02;101144.56;;;11.25;60.70
6567;BME280;3317;43.994;22.878;2023-03-03T12:08:37;101153.44;;;11.27;60.94
6567;BME280;3317;43.994;22.878;2023-03-03T12:11:13;101152.56;;;11.26;60.90
6567;BME280;3317;43.994;22.878;2023-03-03T12:13:55;101145.44;;;11.25;60.99
6567;BME280;3317;43.994;22.878;2023-03-03T12:16:31;101154.16;;;11.29;61.43
6567;BME280;3317;43.994;22.878;2023-03-03T12:19:28;101143.00;;;11.32;61.73
6567;BME280;3317;43.994;22.878;2023-03-03T12:22:25;101136.84;;;11.30;61.35
6567;BME280;3317;43.994;22.878;2023-03-03T12:25:21;101141.84;;;11.35;61.17
6567;BME280;3317;43.994;22.878;2023-03-03T12:27:55;101136.81;;;11.40;61.73
6567;BME280;3317;43.994;22.878;2023-03-03T12:30:45;101140.09;;;11.44;61.65
6567;BME280;3317;43.994;22.878;2023-03-03T12:33:20;101112.13;;;11.33;62.04
6567;BME280;3317;43.994;22.878;2023-03-03T12:35:55;101131.78;;;11.45;61.53
6567;BME280;3317;43.994;22.878;2023-03-03T12:38:31;101137.06;;;11.47;61.28
6567;BME280;3317;43.994;22.878;2023-03-03T12:41:07;101125.13;;;11.39;60.67
6567;BME280;3317;43.994;22.878;2023-03-03T12:43:46;101133.50;;;11.46;60.52
6567;BME280;3317;43.994;22.878;2023-03-03T12:46:23;101113.53;;;11.37;60.70
6567;BME280;3317;43.994;22.878;2023-03-03T12:48:51;101134.91;;;11.50;60.25
6567;BME280;3317;43.994;22.878;2023-03-03T12:51:30;101129.19;;;11.53;60.51
6567;BME280;3317;43.994;22.878;2023-03-03T12:54:20;101132.44;;;11.57;61.43
6567;BME280;3317;43.994;22.878;2023-03-03T12:56:54;101129.56;;;11.59;61.18
6567;BME280;3317;43.994;22.878;2023-03-03T12:59:28;101121.16;;;11.62;61.29
6567;BME280;3317;43.994;22.878;2023-03-03T13:02:19;101120.69;;;11.66;61.39
6567;BME280;3317;43.994;22.878;2023-03-03T13:04:55;101119.06;;;11.74;61.36
6567;BME280;3317;43.994;22.878;2023-03-03T13:07:32;101119.75;;;11.76;61.37
6567;BME280;3317;43.994;22.878;2023-03-03T13:10:08;101112.63;;;11.75;61.55
6567;BME280;3317;43.994;22.878;2023-03-03T13:12:43;101110.47;;;11.78;61.18
6567;BME280;3317;43.994;22.878;2023-03-03T13:15:18;101100.16;;;11.82;61.48
6567;BME280;3317;43.994;22.878;2023-03-03T13:17:59;101094.16;;;11.78;61.50
6567;BME280;3317;43.994;22.878;2023-03-03T13:20:35;101087.72;;;11.79;61.57
6567;BME280;3317;43.994;22.878;2023-03-03T13:23:09;101104.38;;;11.94;61.67
6567;BME280;3317;43.994;22.878;2023-03-03T13:25:48;101097.81;;;11.87;61.46
6567;BME280;3317;43.994;22.878;2023-03-03T13:28:22;101100.78;;;11.94;60.93
6567;BME280;3317;43.994;22.878;2023-03-03T13:30:57;101099.78;;;11.95;61.00
6567;BME280;3317;43.994;22.878;2023-03-03T13:33:29;101095.03;;;11.97;61.08
6567;BME280;3317;43.994;22.878;2023-03-03T13:36:01;101099.47;;;11.98;61.40
6567;BME280;3317;43.994;22.878;2023-03-03T13:38:31;101094.59;;;12.02;61.25
6567;BME280;3317;43.994;22.878;2023-03-03T13:41:04;101098.28;;;12.01;61.36
6567;BME280;3317;43.994;22.878;2023-03-03T13:43:40;101104.47;;;12.03;61.48
6567;BME280;3317;43.994;22.878;2023-03-03T13:46:14;101094.00;;;12.08;61.51
6567;BME280;3317;43.994;22.878;2023-03-03T13:49:12;101045.31;;;11.78;61.84